EGTK/OXF METAR and TAF weather

Enter ICAO airport designator
Station Type Date Time Source
EGTK METAR 2022/05/23 14:50 UTC NOAA

EGTK 231450Z 29010KT 260V330 9999 FEW029 BKN039 16/09 Q1000


Station Type Date Time Source
EGTK Decoded METAR 2022/05/23 14:50 UTC NOAA

Station name not available
May 23, 2022 - 10:50 AM EDT / 2022.05.23 1450 UTC
Wind: from the WNW (290 degrees) at 12 MPH (10 KT) (direction variable):0
Visibility: greater than 7 mile(s):0
Sky conditions: mostly cloudy
Temperature: 60 F (16 C)
Dew Point: 48 F (9 C)
Relative Humidity: 63%
Pressure (altimeter): 29.53 in. Hg (1000 hPa)
ob: EGTK 231450Z 29010KT 260V330 9999 FEW029 BKN039 16/09 Q1000
cycle: 15

Station Type Date Time Source
EGTK TAF UTC NOAA

Error!

Example: see airport list